sensor_id;sensor_type;location;lat;lon;timestamp;pressure;altitude;pressure_sealevel;temperature;humidity
21433;BME280;18592;49.708;10.900;2023-08-07T00:01:07;97897.59;;;17.94;56.37
21433;BME280;18592;49.708;10.900;2023-08-07T00:03:07;97891.59;;;17.92;56.39
21433;BME280;18592;49.708;10.900;2023-08-07T00:05:08;97889.16;;;17.90;56.35
21433;BME280;18592;49.708;10.900;2023-08-07T00:07:08;97888.97;;;17.87;56.36
21433;BME280;18592;49.708;10.900;2023-08-07T00:09:09;97899.16;;;17.86;56.51
21433;BME280;18592;49.708;10.900;2023-08-07T00:11:10;97895.91;;;17.84;56.72
21433;BME280;18592;49.708;10.900;2023-08-07T00:13:10;97895.09;;;17.84;56.60
21433;BME280;18592;49.708;10.900;2023-08-07T00:15:10;97899.16;;;17.86;56.53
21433;BME280;18592;49.708;10.900;2023-08-07T00:17:11;97900.31;;;17.85;56.39
21433;BME280;18592;49.708;10.900;2023-08-07T00:19:12;97896.25;;;17.83;56.53
21433;BME280;18592;49.708;10.900;2023-08-07T00:21:12;97894.59;;;17.82;56.59
21433;BME280;18592;49.708;10.900;2023-08-07T00:23:14;97903.69;;;17.82;56.60
21433;BME280;18592;49.708;10.900;2023-08-07T00:25:15;97904.31;;;17.79;56.71
21433;BME280;18592;49.708;10.900;2023-08-07T00:27:15;97902.19;;;17.76;56.86
21433;BME280;18592;49.708;10.900;2023-08-07T00:29:15;97897.81;;;17.75;56.63
21433;BME280;18592;49.708;10.900;2023-08-07T00:31:25;97901.69;;;17.74;56.67
21433;BME280;18592;49.708;10.900;2023-08-07T00:33:27;97902.84;;;17.73;56.66
21433;BME280;18592;49.708;10.900;2023-08-07T00:35:27;97905.59;;;17.73;56.62
21433;BME280;18592;49.708;10.900;2023-08-07T00:37:28;97900.38;;;17.71;56.64
21433;BME280;18592;49.708;10.900;2023-08-07T00:39:28;97905.06;;;17.71;56.97
21433;BME280;18592;49.708;10.900;2023-08-07T00:41:29;97903.94;;;17.72;56.75
21433;BME280;18592;49.708;10.900;2023-08-07T00:43:29;97907.03;;;17.70;56.81
21433;BME280;18592;49.708;10.900;2023-08-07T00:45:34;97907.31;;;17.69;56.91
21433;BME280;18592;49.708;10.900;2023-08-07T00:47:36;97908.97;;;17.70;56.71
21433;BME280;18592;49.708;10.900;2023-08-07T00:49:38;97903.75;;;17.68;56.84
21433;BME280;18592;49.708;10.900;2023-08-07T00:51:39;97905.19;;;17.66;56.87
21433;BME280;18592;49.708;10.900;2023-08-07T00:53:40;97912.34;;;17.67;56.62
21433;BME280;18592;49.708;10.900;2023-08-07T00:55:42;97919.78;;;17.66;57.06
21433;BME280;18592;49.708;10.900;2023-08-07T00:57:42;97913.47;;;17.66;56.88
21433;BME280;18592;49.708;10.900;2023-08-07T00:59:43;97918.97;;;17.66;57.05
21433;BME280;18592;49.708;10.900;2023-08-07T01:01:44;97920.41;;;17.63;57.08
21433;BME280;18592;49.708;10.900;2023-08-07T01:03:45;97925.13;;;17.63;57.02
21433;BME280;18592;49.708;10.900;2023-08-07T01:05:46;97923.97;;;17.64;57.09
21433;BME280;18592;49.708;10.900;2023-08-07T01:07:47;97922.06;;;17.64;56.96
21433;BME280;18592;49.708;10.900;2023-08-07T01:09:48;97927.06;;;17.62;56.97
21433;BME280;18592;49.708;10.900;2023-08-07T01:14:28;97928.19;;;17.61;57.02
21433;BME280;18592;49.708;10.900;2023-08-07T01:16:48;97943.09;;;17.60;57.00
21433;BME280;18592;49.708;10.900;2023-08-07T01:18:56;97941.25;;;17.56;57.20
21433;BME280;18592;49.708;10.900;2023-08-07T01:20:57;97938.50;;;17.56;57.15
21433;BME280;18592;49.708;10.900;2023-08-07T01:22:57;97947.59;;;17.56;57.02
21433;BME280;18592;49.708;10.900;2023-08-07T01:25:13;97944.53;;;17.58;56.90
21433;BME280;18592;49.708;10.900;2023-08-07T01:27:27;97955.69;;;17.53;57.36
21433;BME280;18592;49.708;10.900;2023-08-07T01:29:36;97953.44;;;17.55;57.11
21433;BME280;18592;49.708;10.900;2023-08-07T01:31:49;97953.19;;;17.51;57.27
21433;BME280;18592;49.708;10.900;2023-08-07T01:33:56;97951.88;;;17.49;57.29
21433;BME280;18592;49.708;10.900;2023-08-07T01:35:58;97947.69;;;17.51;57.14
21433;BME280;18592;49.708;10.900;2023-08-07T01:38:03;97953.50;;;17.50;57.38
21433;BME280;18592;49.708;10.900;2023-08-07T01:40:05;97954.63;;;17.49;57.30
21433;BME280;18592;49.708;10.900;2023-08-07T01:42:07;97961.56;;;17.46;57.37
21433;BME280;18592;49.708;10.900;2023-08-07T01:44:07;97955.44;;;17.49;57.21
21433;BME280;18592;49.708;10.900;2023-08-07T01:46:08;97957.38;;;17.49;57.21
21433;BME280;18592;49.708;10.900;2023-08-07T01:48:13;97964.66;;;17.45;57.40
21433;BME280;18592;49.708;10.900;2023-08-07T01:50:13;97966.78;;;17.48;57.31
21433;BME280;18592;49.708;10.900;2023-08-07T01:52:14;97974.84;;;17.44;57.07
21433;BME280;18592;49.708;10.900;2023-08-07T01:54:15;97970.16;;;17.45;57.39
21433;BME280;18592;49.708;10.900;2023-08-07T01:56:16;97979.25;;;17.45;57.36
21433;BME280;18592;49.708;10.900;2023-08-07T01:58:16;97982.28;;;17.44;57.36
21433;BME280;18592;49.708;10.900;2023-08-07T02:00:17;97979.66;;;17.39;57.78
21433;BME280;18592;49.708;10.900;2023-08-07T02:02:17;97981.78;;;17.42;57.31
21433;BME280;18592;49.708;10.900;2023-08-07T02:04:17;97983.13;;;17.44;57.39
21433;BME280;18592;49.708;10.900;2023-08-07T02:06:18;97986.81;;;17.40;57.29
21433;BME280;18592;49.708;10.900;2023-08-07T02:08:19;97996.06;;;17.44;57.37
21433;BME280;18592;49.708;10.900;2023-08-07T02:10:19;97987.31;;;17.42;57.41
21433;BME280;18592;49.708;10.900;2023-08-07T02:12:34;97995.06;;;17.40;57.33
21433;BME280;18592;49.708;10.900;2023-08-07T02:14:35;97993.44;;;17.39;57.46
21433;BME280;18592;49.708;10.900;2023-08-07T02:16:35;97997.31;;;17.38;57.43
21433;BME280;18592;49.708;10.900;2023-08-07T02:18:36;97990.19;;;17.37;57.42
21433;BME280;18592;49.708;10.900;2023-08-07T02:20:36;97995.06;;;17.40;57.21
21433;BME280;18592;49.708;10.900;2023-08-07T02:22:37;97999.75;;;17.39;57.33
21433;BME280;18592;49.708;10.900;2023-08-07T02:24:37;97993.75;;;17.37;57.33
21433;BME280;18592;49.708;10.900;2023-08-07T02:26:37;98003.13;;;17.36;57.60
21433;BME280;18592;49.708;10.900;2023-08-07T02:28:39;98001.19;;;17.37;57.41
21433;BME280;18592;49.708;10.900;2023-08-07T02:30:39;98006.81;;;17.32;57.49
21433;BME280;18592;49.708;10.900;2023-08-07T02:32:40;98004.06;;;17.32;57.48
21433;BME280;18592;49.708;10.900;2023-08-07T02:34:44;98003.56;;;17.30;57.30
21433;BME280;18592;49.708;10.900;2023-08-07T02:36:45;98010.69;;;17.31;57.32
21433;BME280;18592;49.708;10.900;2023-08-07T02:38:45;98007.75;;;17.27;57.41
21433;BME280;18592;49.708;10.900;2023-08-07T02:40:45;98005.28;;;17.26;57.43
21433;BME280;18592;49.708;10.900;2023-08-07T02:42:46;98022.94;;;17.25;57.51
21433;BME280;18592;49.708;10.900;2023-08-07T02:44:46;98016.28;;;17.26;57.45
21433;BME280;18592;49.708;10.900;2023-08-07T02:46:47;98017.44;;;17.25;57.52
21433;BME280;18592;49.708;10.900;2023-08-07T02:48:47;98015.78;;;17.24;57.32
21433;BME280;18592;49.708;10.900;2023-08-07T02:50:47;98025.50;;;17.21;57.60
21433;BME280;18592;49.708;10.900;2023-08-07T02:53:04;98018.56;;;17.24;57.37
21433;BME280;18592;49.708;10.900;2023-08-07T02:55:04;98016.41;;;17.21;57.62
21433;BME280;18592;49.708;10.900;2023-08-07T02:57:05;98026.09;;;17.18;57.66
21433;BME280;18592;49.708;10.900;2023-08-07T02:59:05;98016.72;;;17.19;57.43
21433;BME280;18592;49.708;10.900;2023-08-07T03:01:06;98026.91;;;17.19;57.65
21433;BME280;18592;49.708;10.900;2023-08-07T03:03:19;98018.66;;;17.19;57.54
21433;BME280;18592;49.708;10.900;2023-08-07T03:05:19;98029.16;;;17.17;57.60
21433;BME280;18592;49.708;10.900;2023-08-07T03:07:20;98026.72;;;17.15;57.59
21433;BME280;18592;49.708;10.900;2023-08-07T03:09:20;98032.03;;;17.11;57.62
21433;BME280;18592;49.708;10.900;2023-08-07T03:11:21;98029.06;;;17.08;57.51
21433;BME280;18592;49.708;10.900;2023-08-07T03:13:22;98033.44;;;17.09;57.72
21433;BME280;18592;49.708;10.900;2023-08-07T03:15:22;98039.28;;;17.07;57.77
21433;BME280;18592;49.708;10.900;2023-08-07T03:17:23;98045.06;;;17.06;57.72
21433;BME280;18592;49.708;10.900;2023-08-07T03:19:23;98045.38;;;17.04;58.01
21433;BME280;18592;49.708;10.900;2023-08-07T03:21:24;98038.13;;;17.08;57.82
21433;BME280;18592;49.708;10.900;2023-08-07T03:23:25;98048.31;;;17.08;57.66
21433;BME280;18592;49.708;10.900;2023-08-07T03:25:28;98049.75;;;17.05;57.80
21433;BME280;18592;49.708;10.900;2023-08-07T03:27:28;98059.16;;;17.04;57.77
21433;BME280;18592;49.708;10.900;2023-08-07T03:29:29;98051.19;;;17.03;57.91
21433;BME280;18592;49.708;10.900;2023-08-07T03:31:32;98047.09;;;17.00;57.93
21433;BME280;18592;49.708;10.900;2023-08-07T03:33:32;98049.25;;;17.03;57.67
21433;BME280;18592;49.708;10.900;2023-08-07T03:35:33;98050.91;;;17.04;57.68
21433;BME280;18592;49.708;10.900;2023-08-07T03:37:34;98056.41;;;17.04;57.61
21433;BME280;18592;49.708;10.900;2023-08-07T03:39:34;98059.16;;;17.04;57.98
21433;BME280;18592;49.708;10.900;2023-08-07T03:41:34;98066.91;;;17.02;57.93
21433;BME280;18592;49.708;10.900;2023-08-07T03:43:35;98062.84;;;17.00;57.66
21433;BME280;18592;49.708;10.900;2023-08-07T03:45:36;98059.25;;;16.99;57.62
21433;BME280;18592;49.708;10.900;2023-08-07T03:47:36;98063.63;;;17.00;57.60
21433;BME280;18592;49.708;10.900;2023-08-07T03:49:37;98066.38;;;17.00;57.93
21433;BME280;18592;49.708;10.900;2023-08-07T03:51:38;98079.34;;;17.00;57.65
21433;BME280;18592;49.708;10.900;2023-08-07T03:53:38;98076.38;;;16.96;57.59
21433;BME280;18592;49.708;10.900;2023-08-07T03:55:43;98080.25;;;16.95;57.72
21433;BME280;18592;49.708;10.900;2023-08-07T03:57:45;98085.75;;;16.95;57.94
21433;BME280;18592;49.708;10.900;2023-08-07T03:59:46;98089.13;;;16.92;57.80
21433;BME280;18592;49.708;10.900;2023-08-07T04:02:13;98089.41;;;16.91;58.26
21433;BME280;18592;49.708;10.900;2023-08-07T04:04:14;98101.75;;;16.93;57.71
21433;BME280;18592;49.708;10.900;2023-08-07T04:06:23;98096.25;;;16.93;57.79
21433;BME280;18592;49.708;10.900;2023-08-07T04:08:23;98093.00;;;16.91;57.83
21433;BME280;18592;49.708;10.900;2023-08-07T04:10:23;98102.69;;;16.89;57.64
21433;BME280;18592;49.708;10.900;2023-08-07T04:12:24;98106.25;;;16.89;57.67
21433;BME280;18592;49.708;10.900;2023-08-07T04:14:25;98103.00;;;16.87;57.84
21433;BME280;18592;49.708;10.900;2023-08-07T04:16:26;98109.84;;;16.90;57.73
21433;BME280;18592;49.708;10.900;2023-08-07T04:18:27;98106.03;;;16.86;57.80
21433;BME280;18592;49.708;10.900;2023-08-07T04:20:27;98111.53;;;16.86;57.79
21433;BME280;18592;49.708;10.900;2023-08-07T04:22:27;98107.44;;;16.83;58.08
21433;BME280;18592;49.708;10.900;2023-08-07T04:24:28;98112.97;;;16.83;57.82
21433;BME280;18592;49.708;10.900;2023-08-07T04:26:28;98110.72;;;16.85;57.84
21433;BME280;18592;49.708;10.900;2023-08-07T04:28:29;98108.59;;;16.82;57.99
21433;BME280;18592;49.708;10.900;2023-08-07T04:30:29;98114.09;;;16.82;58.03
21433;BME280;18592;49.708;10.900;2023-08-07T04:32:30;98122.03;;;16.84;58.04
21433;BME280;18592;49.708;10.900;2023-08-07T04:34:30;98122.34;;;16.82;57.89
21433;BME280;18592;49.708;10.900;2023-08-07T04:36:31;98116.03;;;16.82;58.00
21433;BME280;18592;49.708;10.900;2023-08-07T04:38:31;98125.38;;;16.81;57.88
21433;BME280;18592;49.708;10.900;2023-08-07T04:40:31;98131.50;;;16.78;57.96
21433;BME280;18592;49.708;10.900;2023-08-07T04:42:32;98133.72;;;16.76;58.26
21433;BME280;18592;49.708;10.900;2023-08-07T04:44:32;98130.16;;;16.75;58.28
21433;BME280;18592;49.708;10.900;2023-08-07T04:46:33;98130.69;;;16.77;57.93
21433;BME280;18592;49.708;10.900;2023-08-07T04:48:33;98136.50;;;16.76;58.11
21433;BME280;18592;49.708;10.900;2023-08-07T04:50:34;98137.59;;;16.75;58.08
21433;BME280;18592;49.708;10.900;2023-08-07T04:52:41;98140.34;;;16.75;58.26
21433;BME280;18592;49.708;10.900;2023-08-07T04:54:41;98142.00;;;16.76;58.18
21433;BME280;18592;49.708;10.900;2023-08-07T04:56:41;98139.00;;;16.72;58.25
21433;BME280;18592;49.708;10.900;2023-08-07T04:58:44;98135.75;;;16.70;58.14
21433;BME280;18592;49.708;10.900;2023-08-07T05:00:45;98141.75;;;16.72;58.25
21433;BME280;18592;49.708;10.900;2023-08-07T05:02:45;98143.41;;;16.73;58.25
21433;BME280;18592;49.708;10.900;2023-08-07T05:04:45;98141.75;;;16.72;58.20
21433;BME280;18592;49.708;10.900;2023-08-07T05:06:46;98142.31;;;16.74;58.27
21433;BME280;18592;49.708;10.900;2023-08-07T05:08:46;98145.34;;;16.73;58.21
21433;BME280;18592;49.708;10.900;2023-08-07T05:11:02;98146.75;;;16.70;58.43
21433;BME280;18592;49.708;10.900;2023-08-07T05:13:02;98155.84;;;16.71;58.22
21433;BME280;18592;49.708;10.900;2023-08-07T05:15:11;98145.94;;;16.70;58.54
21433;BME280;18592;49.708;10.900;2023-08-07T05:17:11;98150.03;;;16.72;58.43
21433;BME280;18592;49.708;10.900;2023-08-07T05:19:13;98146.47;;;16.72;58.45
21433;BME280;18592;49.708;10.900;2023-08-07T05:21:13;98155.53;;;16.72;58.39
21433;BME280;18592;49.708;10.900;2023-08-07T05:23:13;98158.00;;;16.74;58.35
21433;BME280;18592;49.708;10.900;2023-08-07T05:25:14;98155.53;;;16.72;58.46
21433;BME280;18592;49.708;10.900;2023-08-07T05:27:16;98147.81;;;16.74;58.40
21433;BME280;18592;49.708;10.900;2023-08-07T05:29:21;98162.69;;;16.73;58.50
21433;BME280;18592;49.708;10.900;2023-08-07T05:31:21;98157.69;;;16.75;58.35
21433;BME280;18592;49.708;10.900;2023-08-07T05:33:22;98157.41;;;16.77;58.37
21433;BME280;18592;49.708;10.900;2023-08-07T05:35:22;98162.59;;;16.78;58.27
21433;BME280;18592;49.708;10.900;2023-08-07T05:37:22;98163.41;;;16.79;58.22
21433;BME280;18592;49.708;10.900;2023-08-07T05:50:06;98166.19;;;17.38;56.56
21433;BME280;18592;49.708;10.900;2023-08-07T05:52:08;98173.63;;;17.24;56.87
21433;BME280;18592;49.708;10.900;2023-08-07T05:54:09;98177.09;;;17.16;57.29
21433;BME280;18592;49.708;10.900;2023-08-07T05:56:10;98180.75;;;17.11;57.55
21433;BME280;18592;49.708;10.900;2023-08-07T05:58:10;98182.47;;;17.07;57.51
21433;BME280;18592;49.708;10.900;2023-08-07T06:00:11;98180.31;;;17.04;57.54
21433;BME280;18592;49.708;10.900;2023-08-07T06:02:17;98187.75;;;17.04;57.67
21433;BME280;18592;49.708;10.900;2023-08-07T06:04:17;98177.06;;;17.02;57.71
21433;BME280;18592;49.708;10.900;2023-08-07T06:06:18;98188.09;;;17.02;57.78
21433;BME280;18592;49.708;10.900;2023-08-07T06:08:19;98188.09;;;17.02;57.76
21433;BME280;18592;49.708;10.900;2023-08-07T06:10:19;98188.38;;;17.01;57.84
21433;BME280;18592;49.708;10.900;2023-08-07T06:12:19;98184.78;;;17.00;57.87
21433;BME280;18592;49.708;10.900;2023-08-07T06:14:20;98185.91;;;16.99;58.18
21433;BME280;18592;49.708;10.900;2023-08-07T06:16:23;98190.28;;;17.00;57.79
21433;BME280;18592;49.708;10.900;2023-08-07T06:18:23;98191.44;;;16.99;57.85
21433;BME280;18592;49.708;10.900;2023-08-07T06:20:33;98194.19;;;16.99;57.98
21433;BME280;18592;49.708;10.900;2023-08-07T06:22:37;98203.28;;;17.00;57.87
21433;BME280;18592;49.708;10.900;2023-08-07T06:24:38;98201.31;;;17.00;58.30
21433;BME280;18592;49.708;10.900;2023-08-07T06:26:39;98205.72;;;17.01;58.03
21433;BME280;18592;49.708;10.900;2023-08-07T06:28:40;98206.81;;;17.00;58.00
21433;BME280;18592;49.708;10.900;2023-08-07T06:30:41;98209.56;;;17.00;58.22
21433;BME280;18592;49.708;10.900;2023-08-07T06:32:41;98206.03;;;17.00;58.08
21433;BME280;18592;49.708;10.900;2023-08-07T06:34:42;98208.47;;;17.01;58.11
21433;BME280;18592;49.708;10.900;2023-08-07T06:36:44;98214.78;;;17.02;58.16
21433;BME280;18592;49.708;10.900;2023-08-07T06:38:44;98215.63;;;17.02;58.16
21433;BME280;18592;49.708;10.900;2023-08-07T06:40:44;98211.72;;;17.03;57.95
21433;BME280;18592;49.708;10.900;2023-08-07T06:42:45;98220.00;;;17.03;58.25
21433;BME280;18592;49.708;10.900;2023-08-07T06:44:46;98219.72;;;17.05;58.22
21433;BME280;18592;49.708;10.900;2023-08-07T06:46:59;98213.38;;;17.04;58.27
21433;BME280;18592;49.708;10.900;2023-08-07T06:48:59;98218.06;;;17.04;58.26
21433;BME280;18592;49.708;10.900;2023-08-07T06:51:00;98216.41;;;17.03;58.33
21433;BME280;18592;49.708;10.900;2023-08-07T06:53:00;98231.00;;;17.03;58.20
21433;BME280;18592;49.708;10.900;2023-08-07T06:55:00;98229.06;;;17.04;58.08
21433;BME280;18592;49.708;10.900;2023-08-07T06:57:01;98229.38;;;17.02;58.21
21433;BME280;18592;49.708;10.900;2023-08-07T06:59:01;98233.75;;;17.03;58.22
21433;BME280;18592;49.708;10.900;2023-08-07T07:01:02;98229.38;;;17.02;58.13
21433;BME280;18592;49.708;10.900;2023-08-07T07:03:17;98237.66;;;17.02;58.13
21433;BME280;18592;49.708;10.900;2023-08-07T07:05:17;98245.38;;;17.00;58.16
21433;BME280;18592;49.708;10.900;2023-08-07T07:07:33;98241.00;;;16.99;58.06
21433;BME280;18592;49.708;10.900;2023-08-07T07:09:33;98246.50;;;16.99;58.16
21433;BME280;18592;49.708;10.900;2023-08-07T07:11:34;98247.31;;;17.00;58.25
21433;BME280;18592;49.708;10.900;2023-08-07T07:13:50;98246.78;;;16.98;58.31
21433;BME280;18592;49.708;10.900;2023-08-07T07:15:54;98245.38;;;17.00;58.17
21433;BME280;18592;49.708;10.900;2023-08-07T07:17:55;98245.38;;;17.00;58.31
21433;BME280;18592;49.708;10.900;2023-08-07T07:19:55;98250.09;;;17.00;58.22
21433;BME280;18592;49.708;10.900;2023-08-07T07:21:58;98249.53;;;16.98;58.28
21433;BME280;18592;49.708;10.900;2023-08-07T07:23:58;98248.44;;;16.99;58.04
21433;BME280;18592;49.708;10.900;2023-08-07T07:26:00;98261.09;;;17.00;58.15
21433;BME280;18592;49.708;10.900;2023-08-07T07:28:01;98258.84;;;17.02;58.06
21433;BME280;18592;49.708;10.900;2023-08-07T07:30:02;98255.59;;;17.00;58.06
21433;BME280;18592;49.708;10.900;2023-08-07T07:32:02;98270.69;;;17.02;58.09
21433;BME280;18592;49.708;10.900;2023-08-07T07:34:03;98259.38;;;17.04;58.16
21433;BME280;18592;49.708;10.900;2023-08-07T07:36:03;98268.44;;;17.04;58.04
21433;BME280;18592;49.708;10.900;2023-08-07T07:38:06;98265.38;;;17.06;57.90
21433;BME280;18592;49.708;10.900;2023-08-07T07:40:07;98278.88;;;17.07;58.01
21433;BME280;18592;49.708;10.900;2023-08-07T07:42:08;98278.06;;;17.07;58.01
21433;BME280;18592;49.708;10.900;2023-08-07T07:44:08;98276.63;;;17.09;58.05
21433;BME280;18592;49.708;10.900;2023-08-07T07:46:09;98276.63;;;17.09;58.17
21433;BME280;18592;49.708;10.900;2023-08-07T07:48:21;98279.91;;;17.11;58.04
21433;BME280;18592;49.708;10.900;2023-08-07T07:50:21;98281.31;;;17.09;58.15
21433;BME280;18592;49.708;10.900;2023-08-07T07:52:22;98285.41;;;17.11;57.94
21433;BME280;18592;49.708;10.900;2023-08-07T07:54:22;98295.84;;;17.14;57.85
21433;BME280;18592;49.708;10.900;2023-08-07T07:56:22;98293.34;;;17.13;58.12
21433;BME280;18592;49.708;10.900;2023-08-07T07:58:23;98290.31;;;17.14;57.94
21433;BME280;18592;49.708;10.900;2023-08-07T08:00:25;98305.44;;;17.17;58.01
21433;BME280;18592;49.708;10.900;2023-08-07T08:02:27;98302.38;;;17.19;58.02
21433;BME280;18592;49.708;10.900;2023-08-07T08:04:27;98297.16;;;17.17;58.42
21433;BME280;18592;49.708;10.900;2023-08-07T08:06:28;98304.53;;;17.22;58.30
21433;BME280;18592;49.708;10.900;2023-08-07T08:08:28;98307.50;;;17.25;58.03
21433;BME280;18592;49.708;10.900;2023-08-07T08:10:37;98308.31;;;17.26;58.22
21433;BME280;18592;49.708;10.900;2023-08-07T08:12:37;98309.63;;;17.28;58.11
21433;BME280;18592;49.708;10.900;2023-08-07T08:14:38;98307.44;;;17.30;58.26
21433;BME280;18592;49.708;10.900;2023-08-07T08:16:38;98312.63;;;17.32;58.49
21433;BME280;18592;49.708;10.900;2023-08-07T08:18:40;98315.63;;;17.35;58.30
21433;BME280;18592;49.708;10.900;2023-08-07T08:20:51;98320.81;;;17.37;58.38
21433;BME280;18592;49.708;10.900;2023-08-07T08:22:51;98318.56;;;17.39;58.40
21433;BME280;18592;49.708;10.900;2023-08-07T08:24:52;98329.00;;;17.42;58.36
21433;BME280;18592;49.708;10.900;2023-08-07T08:26:53;98322.88;;;17.45;58.05
21433;BME280;18592;49.708;10.900;2023-08-07T08:28:55;98326.97;;;17.47;58.17
21433;BME280;18592;49.708;10.900;2023-08-07T08:30:55;98323.06;;;17.48;58.45
21433;BME280;18592;49.708;10.900;2023-08-07T08:32:56;98343.72;;;17.51;58.41
21433;BME280;18592;49.708;10.900;2023-08-07T08:34:58;98340.38;;;17.54;58.31
21433;BME280;18592;49.708;10.900;2023-08-07T08:36:59;98339.78;;;17.57;58.11
21433;BME280;18592;49.708;10.900;2023-08-07T08:39:13;98346.41;;;17.56;58.50
21433;BME280;18592;49.708;10.900;2023-08-07T08:41:16;98342.22;;;17.58;58.33
21433;BME280;18592;49.708;10.900;2023-08-07T08:43:16;98339.47;;;17.58;58.41
21433;BME280;18592;49.708;10.900;2023-08-07T08:45:18;98353.50;;;17.62;58.34
21433;BME280;18592;49.708;10.900;2023-08-07T08:47:21;98362.06;;;17.60;58.39
21433;BME280;18592;49.708;10.900;2023-08-07T08:49:28;98353.56;;;17.57;58.88
21433;BME280;18592;49.708;10.900;2023-08-07T08:51:32;98360.09;;;17.61;58.54
21433;BME280;18592;49.708;10.900;2023-08-07T08:53:33;98370.53;;;17.64;58.45
21433;BME280;18592;49.708;10.900;2023-08-07T08:55:42;98365.84;;;17.64;58.34
21433;BME280;18592;49.708;10.900;2023-08-07T08:57:51;98367.25;;;17.62;58.44
21433;BME280;18592;49.708;10.900;2023-08-07T08:59:55;98371.97;;;17.61;58.48
21433;BME280;18592;49.708;10.900;2023-08-07T09:01:56;98375.84;;;17.60;58.54
21433;BME280;18592;49.708;10.900;2023-08-07T09:03:58;98377.47;;;17.61;58.41
21433;BME280;18592;49.708;10.900;2023-08-07T09:05:59;98368.91;;;17.63;58.47
21433;BME280;18592;49.708;10.900;2023-08-07T09:08:00;98380.22;;;17.61;58.55
21433;BME280;18592;49.708;10.900;2023-08-07T09:10:02;98382.97;;;17.61;58.47
21433;BME280;18592;49.708;10.900;2023-08-07T09:12:03;98383.22;;;17.65;58.50
21433;BME280;18592;49.708;10.900;2023-08-07T09:14:04;98378.53;;;17.65;58.37
21433;BME280;18592;49.708;10.900;2023-08-07T09:16:07;98381.78;;;17.67;58.44
21433;BME280;18592;49.708;10.900;2023-08-07T09:18:08;98383.13;;;17.70;58.47
21433;BME280;18592;49.708;10.900;2023-08-07T09:20:12;98386.41;;;17.72;58.42
21433;BME280;18592;49.708;10.900;2023-08-07T09:22:29;98388.03;;;17.73;58.44
21433;BME280;18592;49.708;10.900;2023-08-07T09:24:29;98391.91;;;17.72;58.51
21433;BME280;18592;49.708;10.900;2023-08-07T09:26:32;98386.09;;;17.73;58.50
21433;BME280;18592;49.708;10.900;2023-08-07T09:28:33;98396.31;;;17.73;58.52
21433;BME280;18592;49.708;10.900;2023-08-07T09:30:36;98396.31;;;17.73;58.57
21433;BME280;18592;49.708;10.900;2023-08-07T09:32:39;98403.44;;;17.74;58.28
21433;BME280;18592;49.708;10.900;2023-08-07T09:34:40;98406.53;;;17.72;58.32
21433;BME280;18592;49.708;10.900;2023-08-07T09:36:41;98406.22;;;17.74;58.30
21433;BME280;18592;49.708;10.900;2023-08-07T09:38:41;98408.69;;;17.75;58.37
21433;BME280;18592;49.708;10.900;2023-08-07T09:40:42;98402.84;;;17.77;58.29
21433;BME280;18592;49.708;10.900;2023-08-07T09:42:42;98414.72;;;17.77;58.29
21433;BME280;18592;49.708;10.900;2023-08-07T09:44:43;98420.41;;;17.81;58.19
21433;BME280;18592;49.708;10.900;2023-08-07T09:46:51;98425.94;;;17.81;58.34
21433;BME280;18592;49.708;10.900;2023-08-07T09:49:07;98425.34;;;17.84;58.27
21433;BME280;18592;49.708;10.900;2023-08-07T09:51:07;98423.09;;;17.86;58.43
21433;BME280;18592;49.708;10.900;2023-08-07T09:53:08;98424.75;;;17.87;58.44
21433;BME280;18592;49.708;10.900;2023-08-07T09:55:10;98435.47;;;17.89;58.34
21433;BME280;18592;49.708;10.900;2023-08-07T09:57:10;98436.00;;;17.91;58.20
21433;BME280;18592;49.708;10.900;2023-08-07T09:59:11;98427.41;;;17.92;58.16
21433;BME280;18592;49.708;10.900;2023-08-07T10:01:11;98426.81;;;17.95;58.17
21433;BME280;18592;49.708;10.900;2023-08-07T10:03:13;98433.94;;;17.96;58.15
21433;BME280;18592;49.708;10.900;2023-08-07T10:05:14;98435.09;;;17.95;58.20
21433;BME280;18592;49.708;10.900;2023-08-07T10:07:14;98436.19;;;17.94;58.38
21433;BME280;18592;49.708;10.900;2023-08-07T10:09:15;98432.34;;;17.95;58.42
21433;BME280;18592;49.708;10.900;2023-08-07T10:11:16;98434.78;;;17.97;58.35
21433;BME280;18592;49.708;10.900;2023-08-07T10:13:17;98440.81;;;17.99;58.27
21433;BME280;18592;49.708;10.900;2023-08-07T10:15:23;98436.63;;;18.01;58.21
21433;BME280;18592;49.708;10.900;2023-08-07T10:17:34;98434.41;;;18.03;58.19
21433;BME280;18592;49.708;10.900;2023-08-07T10:19:34;98444.28;;;18.04;58.11
21433;BME280;18592;49.708;10.900;2023-08-07T10:21:36;98444.84;;;18.06;58.20
21433;BME280;18592;49.708;10.900;2023-08-07T10:23:38;98445.88;;;18.10;57.97
21433;BME280;18592;49.708;10.900;2023-08-07T10:25:43;98450.56;;;18.10;58.18
21433;BME280;18592;49.708;10.900;2023-08-07T10:27:48;98454.13;;;18.10;58.14
21433;BME280;18592;49.708;10.900;2023-08-07T10:30:07;98452.19;;;18.11;58.05
21433;BME280;18592;49.708;10.900;2023-08-07T10:32:10;98451.38;;;18.10;58.15
21433;BME280;18592;49.708;10.900;2023-08-07T10:34:10;98459.34;;;18.12;58.09
21433;BME280;18592;49.708;10.900;2023-08-07T10:36:11;98454.66;;;18.12;57.88
21433;BME280;18592;49.708;10.900;2023-08-07T10:38:22;98450.78;;;18.13;57.84
21433;BME280;18592;49.708;10.900;2023-08-07T10:40:23;98454.38;;;18.14;58.11
21433;BME280;18592;49.708;10.900;2023-08-07T10:42:23;98452.41;;;18.14;57.84
21433;BME280;18592;49.708;10.900;2023-08-07T10:44:25;98454.56;;;18.17;57.69
21433;BME280;18592;49.708;10.900;2023-08-07T10:46:26;98456.50;;;18.17;57.89
21433;BME280;18592;49.708;10.900;2023-08-07T10:48:27;98460.59;;;18.19;57.98
21433;BME280;18592;49.708;10.900;2023-08-07T10:50:35;98455.06;;;18.19;57.87
21433;BME280;18592;49.708;10.900;2023-08-07T10:52:38;98462.75;;;18.22;57.94